sensor_id;sensor_type;location;lat;lon;timestamp;temperature;humidity
21662;DHT22;10992;48.170;8.596;2023-06-14T00:00:22;10.40;99.90
21662;DHT22;10992;48.170;8.596;2023-06-14T00:02:49;10.40;99.90
21662;DHT22;10992;48.170;8.596;2023-06-14T00:05:16;10.40;99.90
21662;DHT22;10992;48.170;8.596;2023-06-14T00:07:43;10.40;99.90
21662;DHT22;10992;48.170;8.596;2023-06-14T00:10:11;10.50;99.90
21662;DHT22;10992;48.170;8.596;2023-06-14T00:12:39;10.70;99.90
21662;DHT22;10992;48.170;8.596;2023-06-14T00:15:06;10.60;99.90
21662;DHT22;10992;48.170;8.596;2023-06-14T00:17:33;10.60;99.90
21662;DHT22;10992;48.170;8.596;2023-06-14T00:20:02;10.50;99.90
21662;DHT22;10992;48.170;8.596;2023-06-14T00:22:31;10.40;99.90
21662;DHT22;10992;48.170;8.596;2023-06-14T00:24:59;10.20;99.90
21662;DHT22;10992;48.170;8.596;2023-06-14T00:27:40;10.20;99.90
21662;DHT22;10992;48.170;8.596;2023-06-14T00:30:08;10.10;99.90
21662;DHT22;10992;48.170;8.596;2023-06-14T00:32:35;9.90;99.90
21662;DHT22;10992;48.170;8.596;2023-06-14T00:35:02;10.10;99.90
21662;DHT22;10992;48.170;8.596;2023-06-14T00:37:29;10.00;99.90
21662;DHT22;10992;48.170;8.596;2023-06-14T00:39:56;9.90;99.90
21662;DHT22;10992;48.170;8.596;2023-06-14T00:42:24;10.00;99.90
21662;DHT22;10992;48.170;8.596;2023-06-14T00:44:51;10.10;99.90
21662;DHT22;10992;48.170;8.596;2023-06-14T00:47:18;9.90;99.90
21662;DHT22;10992;48.170;8.596;2023-06-14T00:49:53;9.80;99.90
21662;DHT22;10992;48.170;8.596;2023-06-14T00:52:22;9.60;99.90
21662;DHT22;10992;48.170;8.596;2023-06-14T00:54:50;9.60;99.90
21662;DHT22;10992;48.170;8.596;2023-06-14T00:57:17;9.60;99.90
21662;DHT22;10992;48.170;8.596;2023-06-14T00:59:47;9.50;99.90
21662;DHT22;10992;48.170;8.596;2023-06-14T01:02:16;9.60;99.90
21662;DHT22;10992;48.170;8.596;2023-06-14T01:04:49;9.60;99.90
21662;DHT22;10992;48.170;8.596;2023-06-14T01:07:33;9.60;99.90
21662;DHT22;10992;48.170;8.596;2023-06-14T01:10:25;9.60;99.90
21662;DHT22;10992;48.170;8.596;2023-06-14T01:13:19;9.50;99.90
21662;DHT22;10992;48.170;8.596;2023-06-14T01:15:47;9.80;99.90
21662;DHT22;10992;48.170;8.596;2023-06-14T01:18:14;9.90;99.90
21662;DHT22;10992;48.170;8.596;2023-06-14T01:20:46;9.90;99.90
21662;DHT22;10992;48.170;8.596;2023-06-14T01:23:21;9.90;99.90
21662;DHT22;10992;48.170;8.596;2023-06-14T01:25:49;9.70;99.90
21662;DHT22;10992;48.170;8.596;2023-06-14T01:28:21;9.70;99.90
21662;DHT22;10992;48.170;8.596;2023-06-14T01:30:50;9.70;99.90
21662;DHT22;10992;48.170;8.596;2023-06-14T01:33:21;9.60;99.90
21662;DHT22;10992;48.170;8.596;2023-06-14T01:35:50;9.60;99.90
21662;DHT22;10992;48.170;8.596;2023-06-14T01:38:19;9.50;99.90
21662;DHT22;10992;48.170;8.596;2023-06-14T01:40:48;9.40;99.90
21662;DHT22;10992;48.170;8.596;2023-06-14T01:43:16;9.40;99.90
21662;DHT22;10992;48.170;8.596;2023-06-14T01:45:45;9.30;99.90
21662;DHT22;10992;48.170;8.596;2023-06-14T01:48:12;9.10;99.90
21662;DHT22;10992;48.170;8.596;2023-06-14T01:50:39;9.00;99.90
21662;DHT22;10992;48.170;8.596;2023-06-14T01:53:10;9.00;99.90
21662;DHT22;10992;48.170;8.596;2023-06-14T01:55:37;9.00;99.90
21662;DHT22;10992;48.170;8.596;2023-06-14T01:58:06;9.10;99.90
21662;DHT22;10992;48.170;8.596;2023-06-14T02:00:33;9.20;99.90
21662;DHT22;10992;48.170;8.596;2023-06-14T02:03:00;9.20;99.90
21662;DHT22;10992;48.170;8.596;2023-06-14T02:05:27;9.20;99.90
21662;DHT22;10992;48.170;8.596;2023-06-14T02:07:54;9.10;99.90
21662;DHT22;10992;48.170;8.596;2023-06-14T02:10:22;9.00;99.90
21662;DHT22;10992;48.170;8.596;2023-06-14T02:12:49;9.00;99.90
21662;DHT22;10992;48.170;8.596;2023-06-14T02:15:16;9.30;99.90
21662;DHT22;10992;48.170;8.596;2023-06-14T02:17:45;9.30;99.90
21662;DHT22;10992;48.170;8.596;2023-06-14T02:20:13;9.10;99.90
21662;DHT22;10992;48.170;8.596;2023-06-14T02:22:41;9.10;99.90
21662;DHT22;10992;48.170;8.596;2023-06-14T02:25:09;9.00;99.90
21662;DHT22;10992;48.170;8.596;2023-06-14T02:27:35;9.20;99.90
21662;DHT22;10992;48.170;8.596;2023-06-14T02:30:03;9.00;99.90
21662;DHT22;10992;48.170;8.596;2023-06-14T02:32:32;8.90;99.90
21662;DHT22;10992;48.170;8.596;2023-06-14T02:35:01;8.70;99.90
21662;DHT22;10992;48.170;8.596;2023-06-14T02:37:28;8.60;99.90
21662;DHT22;10992;48.170;8.596;2023-06-14T02:39:56;8.70;99.90
21662;DHT22;10992;48.170;8.596;2023-06-14T02:42:23;8.70;99.90
21662;DHT22;10992;48.170;8.596;2023-06-14T02:44:50;8.60;99.90
21662;DHT22;10992;48.170;8.596;2023-06-14T02:47:18;8.50;99.90
21662;DHT22;10992;48.170;8.596;2023-06-14T02:49:45;8.50;99.90
21662;DHT22;10992;48.170;8.596;2023-06-14T02:52:16;8.50;99.90
21662;DHT22;10992;48.170;8.596;2023-06-14T02:54:43;8.50;99.90
21662;DHT22;10992;48.170;8.596;2023-06-14T02:57:10;8.50;99.90
21662;DHT22;10992;48.170;8.596;2023-06-14T02:59:40;8.50;99.90
21662;DHT22;10992;48.170;8.596;2023-06-14T03:02:07;8.70;99.90
21662;DHT22;10992;48.170;8.596;2023-06-14T03:04:34;8.90;99.90
21662;DHT22;10992;48.170;8.596;2023-06-14T03:07:08;8.80;99.90
21662;DHT22;10992;48.170;8.596;2023-06-14T03:09:41;8.60;99.90
21662;DHT22;10992;48.170;8.596;2023-06-14T03:12:10;8.40;99.90
21662;DHT22;10992;48.170;8.596;2023-06-14T03:14:38;8.30;99.90
21662;DHT22;10992;48.170;8.596;2023-06-14T03:17:07;8.30;99.90
21662;DHT22;10992;48.170;8.596;2023-06-14T03:19:36;8.10;99.90
21662;DHT22;10992;48.170;8.596;2023-06-14T03:22:04;8.10;99.90
21662;DHT22;10992;48.170;8.596;2023-06-14T03:24:32;8.10;99.90
21662;DHT22;10992;48.170;8.596;2023-06-14T03:27:08;8.10;99.90
21662;DHT22;10992;48.170;8.596;2023-06-14T03:29:40;8.20;99.90
21662;DHT22;10992;48.170;8.596;2023-06-14T03:32:08;8.30;99.90
21662;DHT22;10992;48.170;8.596;2023-06-14T03:34:38;8.40;99.90
21662;DHT22;10992;48.170;8.596;2023-06-14T03:37:13;8.50;99.90
21662;DHT22;10992;48.170;8.596;2023-06-14T03:39:40;8.80;99.90
21662;DHT22;10992;48.170;8.596;2023-06-14T03:42:16;9.20;99.90
21662;DHT22;10992;48.170;8.596;2023-06-14T03:44:45;9.40;99.90
21662;DHT22;10992;48.170;8.596;2023-06-14T03:47:13;9.70;99.90
21662;DHT22;10992;48.170;8.596;2023-06-14T03:49:41;9.80;99.90
21662;DHT22;10992;48.170;8.596;2023-06-14T03:52:07;9.70;99.90
21662;DHT22;10992;48.170;8.596;2023-06-14T03:54:37;9.60;99.90
21662;DHT22;10992;48.170;8.596;2023-06-14T03:57:07;9.50;99.90
21662;DHT22;10992;48.170;8.596;2023-06-14T03:59:34;9.40;99.90
21662;DHT22;10992;48.170;8.596;2023-06-14T04:02:02;9.40;99.90
21662;DHT22;10992;48.170;8.596;2023-06-14T04:04:29;9.50;99.90
21662;DHT22;10992;48.170;8.596;2023-06-14T04:06:58;9.50;99.90
21662;DHT22;10992;48.170;8.596;2023-06-14T04:09:27;9.50;99.90
21662;DHT22;10992;48.170;8.596;2023-06-14T04:11:56;9.70;99.90
21662;DHT22;10992;48.170;8.596;2023-06-14T04:14:24;9.90;99.90
21662;DHT22;10992;48.170;8.596;2023-06-14T04:16:51;10.00;99.90
21662;DHT22;10992;48.170;8.596;2023-06-14T04:19:19;10.10;99.90
21662;DHT22;10992;48.170;8.596;2023-06-14T04:21:46;10.20;99.90
21662;DHT22;10992;48.170;8.596;2023-06-14T04:24:15;10.20;99.90
21662;DHT22;10992;48.170;8.596;2023-06-14T04:26:46;10.30;99.90
21662;DHT22;10992;48.170;8.596;2023-06-14T04:29:16;10.40;99.90
21662;DHT22;10992;48.170;8.596;2023-06-14T04:31:49;10.40;99.90
21662;DHT22;10992;48.170;8.596;2023-06-14T04:34:20;10.50;99.90
21662;DHT22;10992;48.170;8.596;2023-06-14T04:36:54;10.60;99.90
21662;DHT22;10992;48.170;8.596;2023-06-14T04:39:29;10.80;99.90
21662;DHT22;10992;48.170;8.596;2023-06-14T04:41:58;11.00;99.90
21662;DHT22;10992;48.170;8.596;2023-06-14T04:44:27;11.30;99.90
21662;DHT22;10992;48.170;8.596;2023-06-14T04:47:01;11.60;99.90
21662;DHT22;10992;48.170;8.596;2023-06-14T04:49:28;12.40;99.90
21662;DHT22;10992;48.170;8.596;2023-06-14T04:51:57;13.50;99.90
21662;DHT22;10992;48.170;8.596;2023-06-14T04:54:28;14.80;99.90
21662;DHT22;10992;48.170;8.596;2023-06-14T04:56:59;16.60;99.90
21662;DHT22;10992;48.170;8.596;2023-06-14T04:59:27;18.60;99.90
21662;DHT22;10992;48.170;8.596;2023-06-14T05:01:54;19.80;99.90
21662;DHT22;10992;48.170;8.596;2023-06-14T05:04:23;20.00;99.90
21662;DHT22;10992;48.170;8.596;2023-06-14T05:06:52;20.30;99.90
21662;DHT22;10992;48.170;8.596;2023-06-14T05:09:21;21.30;99.80
21662;DHT22;10992;48.170;8.596;2023-06-14T05:11:49;21.50;98.70
21662;DHT22;10992;48.170;8.596;2023-06-14T05:14:17;21.50;97.90
21662;DHT22;10992;48.170;8.596;2023-06-14T05:16:45;22.30;97.40
21662;DHT22;10992;48.170;8.596;2023-06-14T05:19:12;22.90;97.00
21662;DHT22;10992;48.170;8.596;2023-06-14T05:21:39;22.90;96.90
21662;DHT22;10992;48.170;8.596;2023-06-14T05:24:09;23.60;95.60
21662;DHT22;10992;48.170;8.596;2023-06-14T05:26:36;23.80;95.30
21662;DHT22;10992;48.170;8.596;2023-06-14T05:29:03;23.70;95.40
21662;DHT22;10992;48.170;8.596;2023-06-14T05:31:30;24.50;94.20
21662;DHT22;10992;48.170;8.596;2023-06-14T05:33:57;24.20;93.40
21662;DHT22;10992;48.170;8.596;2023-06-14T05:36:24;24.50;93.30
21662;DHT22;10992;48.170;8.596;2023-06-14T05:38:52;24.70;92.30
21662;DHT22;10992;48.170;8.596;2023-06-14T05:41:25;25.70;90.80
21662;DHT22;10992;48.170;8.596;2023-06-14T05:43:56;25.00;91.70
21662;DHT22;10992;48.170;8.596;2023-06-14T05:46:23;25.40;90.00
21662;DHT22;10992;48.170;8.596;2023-06-14T05:48:55;26.10;89.20
21662;DHT22;10992;48.170;8.596;2023-06-14T05:51:23;26.90;87.50
21662;DHT22;10992;48.170;8.596;2023-06-14T05:53:52;27.30;86.20
21662;DHT22;10992;48.170;8.596;2023-06-14T05:56:19;27.20;84.50
21662;DHT22;10992;48.170;8.596;2023-06-14T05:58:46;26.60;86.20
21662;DHT22;10992;48.170;8.596;2023-06-14T06:01:14;25.90;89.70
21662;DHT22;10992;48.170;8.596;2023-06-14T06:03:41;26.60;86.70
21662;DHT22;10992;48.170;8.596;2023-06-14T06:06:13;26.70;85.80
21662;DHT22;10992;48.170;8.596;2023-06-14T06:08:40;27.10;84.00
21662;DHT22;10992;48.170;8.596;2023-06-14T06:11:07;26.90;84.60
21662;DHT22;10992;48.170;8.596;2023-06-14T06:13:35;26.90;82.60
21662;DHT22;10992;48.170;8.596;2023-06-14T06:16:03;27.00;83.10
21662;DHT22;10992;48.170;8.596;2023-06-14T06:18:30;26.30;82.20
21662;DHT22;10992;48.170;8.596;2023-06-14T06:20:57;25.40;82.50
21662;DHT22;10992;48.170;8.596;2023-06-14T06:23:24;25.30;86.00
21662;DHT22;10992;48.170;8.596;2023-06-14T06:25:51;26.70;83.50
21662;DHT22;10992;48.170;8.596;2023-06-14T06:28:18;27.40;80.40
21662;DHT22;10992;48.170;8.596;2023-06-14T06:30:45;26.40;83.20
21662;DHT22;10992;48.170;8.596;2023-06-14T06:33:13;27.20;82.70
21662;DHT22;10992;48.170;8.596;2023-06-14T06:35:40;27.40;81.40
21662;DHT22;10992;48.170;8.596;2023-06-14T06:38:07;27.30;81.00
21662;DHT22;10992;48.170;8.596;2023-06-14T06:40:36;27.70;81.80
21662;DHT22;10992;48.170;8.596;2023-06-14T06:43:03;27.10;81.40
21662;DHT22;10992;48.170;8.596;2023-06-14T06:45:39;28.20;80.10
21662;DHT22;10992;48.170;8.596;2023-06-14T06:48:06;27.90;80.60
21662;DHT22;10992;48.170;8.596;2023-06-14T06:50:33;27.20;82.10
21662;DHT22;10992;48.170;8.596;2023-06-14T06:53:00;26.90;83.40
21662;DHT22;10992;48.170;8.596;2023-06-14T06:55:28;28.20;79.30
21662;DHT22;10992;48.170;8.596;2023-06-14T06:57:54;27.90;79.50
21662;DHT22;10992;48.170;8.596;2023-06-14T07:00:21;28.00;79.20
21662;DHT22;10992;48.170;8.596;2023-06-14T07:02:48;28.70;79.00
21662;DHT22;10992;48.170;8.596;2023-06-14T07:05:15;29.70;75.50
21662;DHT22;10992;48.170;8.596;2023-06-14T07:07:42;30.20;75.30
21662;DHT22;10992;48.170;8.596;2023-06-14T07:10:09;29.90;75.30
21662;DHT22;10992;48.170;8.596;2023-06-14T07:12:37;29.70;75.40
21662;DHT22;10992;48.170;8.596;2023-06-14T07:15:09;29.80;75.20
21662;DHT22;10992;48.170;8.596;2023-06-14T07:17:36;29.60;73.30
21662;DHT22;10992;48.170;8.596;2023-06-14T07:20:05;30.00;74.80
21662;DHT22;10992;48.170;8.596;2023-06-14T07:22:34;29.10;76.30
21662;DHT22;10992;48.170;8.596;2023-06-14T07:25:01;29.20;75.00
21662;DHT22;10992;48.170;8.596;2023-06-14T07:27:29;28.60;75.70
21662;DHT22;10992;48.170;8.596;2023-06-14T07:29:56;28.20;76.90
21662;DHT22;10992;48.170;8.596;2023-06-14T07:32:23;27.40;79.10
21662;DHT22;10992;48.170;8.596;2023-06-14T07:34:50;27.70;79.60
21662;DHT22;10992;48.170;8.596;2023-06-14T07:37:17;27.60;81.20
21662;DHT22;10992;48.170;8.596;2023-06-14T07:39:44;27.20;79.90
21662;DHT22;10992;48.170;8.596;2023-06-14T07:42:11;26.80;83.30
21662;DHT22;10992;48.170;8.596;2023-06-14T07:44:38;27.70;81.80
21662;DHT22;10992;48.170;8.596;2023-06-14T07:47:05;28.10;81.10
21662;DHT22;10992;48.170;8.596;2023-06-14T07:49:32;28.20;80.20
21662;DHT22;10992;48.170;8.596;2023-06-14T07:51:59;28.00;82.00
21662;DHT22;10992;48.170;8.596;2023-06-14T07:54:25;28.10;79.80
21662;DHT22;10992;48.170;8.596;2023-06-14T07:56:53;28.30;81.10
21662;DHT22;10992;48.170;8.596;2023-06-14T07:59:20;28.60;80.50
21662;DHT22;10992;48.170;8.596;2023-06-14T08:01:47;28.70;77.30
21662;DHT22;10992;48.170;8.596;2023-06-14T08:04:14;28.90;76.20
21662;DHT22;10992;48.170;8.596;2023-06-14T08:06:41;28.70;75.80
21662;DHT22;10992;48.170;8.596;2023-06-14T08:09:13;28.00;75.00
21662;DHT22;10992;48.170;8.596;2023-06-14T08:11:40;26.80;79.30
21662;DHT22;10992;48.170;8.596;2023-06-14T08:14:07;27.10;77.10
21662;DHT22;10992;48.170;8.596;2023-06-14T08:16:34;27.40;77.60
21662;DHT22;10992;48.170;8.596;2023-06-14T08:19:02;27.70;76.80
21662;DHT22;10992;48.170;8.596;2023-06-14T08:21:29;27.60;77.70
21662;DHT22;10992;48.170;8.596;2023-06-14T08:23:57;27.50;75.50
21662;DHT22;10992;48.170;8.596;2023-06-14T08:26:24;27.60;77.50
21662;DHT22;10992;48.170;8.596;2023-06-14T08:28:55;27.30;76.40
21662;DHT22;10992;48.170;8.596;2023-06-14T08:31:22;27.30;77.30
21662;DHT22;10992;48.170;8.596;2023-06-14T08:33:50;27.00;77.30
21662;DHT22;10992;48.170;8.596;2023-06-14T08:36:17;26.90;78.90
21662;DHT22;10992;48.170;8.596;2023-06-14T08:38:44;27.00;80.10
21662;DHT22;10992;48.170;8.596;2023-06-14T08:41:12;28.10;78.40
21662;DHT22;10992;48.170;8.596;2023-06-14T08:43:42;28.30;76.10
21662;DHT22;10992;48.170;8.596;2023-06-14T08:46:09;28.70;74.60
21662;DHT22;10992;48.170;8.596;2023-06-14T08:48:39;28.70;72.60
21662;DHT22;10992;48.170;8.596;2023-06-14T08:51:06;28.80;74.60
21662;DHT22;10992;48.170;8.596;2023-06-14T08:53:36;28.70;69.30
21662;DHT22;10992;48.170;8.596;2023-06-14T08:56:08;28.30;70.30
21662;DHT22;10992;48.170;8.596;2023-06-14T08:58:43;28.70;70.60
21662;DHT22;10992;48.170;8.596;2023-06-14T09:01:11;28.00;69.60
21662;DHT22;10992;48.170;8.596;2023-06-14T09:03:43;28.20;70.40
21662;DHT22;10992;48.170;8.596;2023-06-14T09:06:11;28.50;68.40
21662;DHT22;10992;48.170;8.596;2023-06-14T09:08:46;28.10;71.60
21662;DHT22;10992;48.170;8.596;2023-06-14T09:11:15;28.60;69.20
21662;DHT22;10992;48.170;8.596;2023-06-14T09:13:42;27.70;69.50
21662;DHT22;10992;48.170;8.596;2023-06-14T09:16:09;27.50;70.80
21662;DHT22;10992;48.170;8.596;2023-06-14T09:18:40;27.20;72.00
21662;DHT22;10992;48.170;8.596;2023-06-14T09:21:08;27.70;70.20
21662;DHT22;10992;48.170;8.596;2023-06-14T09:23:42;27.30;71.90
21662;DHT22;10992;48.170;8.596;2023-06-14T09:26:11;27.20;72.20
21662;DHT22;10992;48.170;8.596;2023-06-14T09:28:45;27.30;73.40
21662;DHT22;10992;48.170;8.596;2023-06-14T09:31:17;27.50;73.70
21662;DHT22;10992;48.170;8.596;2023-06-14T09:33:46;27.70;71.80
21662;DHT22;10992;48.170;8.596;2023-06-14T09:36:16;27.80;71.30
21662;DHT22;10992;48.170;8.596;2023-06-14T09:38:57;27.60;71.30
21662;DHT22;10992;48.170;8.596;2023-06-14T09:41:38;27.50;73.30
21662;DHT22;10992;48.170;8.596;2023-06-14T09:44:06;27.90;70.80
21662;DHT22;10992;48.170;8.596;2023-06-14T09:46:40;28.00;69.20
21662;DHT22;10992;48.170;8.596;2023-06-14T09:49:08;27.10;71.30
21662;DHT22;10992;48.170;8.596;2023-06-14T09:51:42;27.50;72.10
21662;DHT22;10992;48.170;8.596;2023-06-14T09:54:15;27.90;71.40
21662;DHT22;10992;48.170;8.596;2023-06-14T09:56:45;28.10;69.90
21662;DHT22;10992;48.170;8.596;2023-06-14T09:59:17;28.20;69.90
21662;DHT22;10992;48.170;8.596;2023-06-14T10:01:46;27.80;69.70
21662;DHT22;10992;48.170;8.596;2023-06-14T10:04:15;27.90;70.10
21662;DHT22;10992;48.170;8.596;2023-06-14T10:06:45;27.70;71.80
21662;DHT22;10992;48.170;8.596;2023-06-14T10:09:12;27.70;71.30
21662;DHT22;10992;48.170;8.596;2023-06-14T10:11:41;27.70;71.60
21662;DHT22;10992;48.170;8.596;2023-06-14T10:14:12;27.80;70.80
21662;DHT22;10992;48.170;8.596;2023-06-14T10:16:56;28.40;72.80
21662;DHT22;10992;48.170;8.596;2023-06-14T10:19:25;28.90;72.10
21662;DHT22;10992;48.170;8.596;2023-06-14T10:22:23;28.80;72.00
21662;DHT22;10992;48.170;8.596;2023-06-14T10:24:52;29.10;69.10
21662;DHT22;10992;48.170;8.596;2023-06-14T10:27:19;28.40;70.90
21662;DHT22;10992;48.170;8.596;2023-06-14T10:32:21;27.40;72.30
21662;DHT22;10992;48.170;8.596;2023-06-14T10:35:01;27.00;73.80
21662;DHT22;10992;48.170;8.596;2023-06-14T10:37:28;26.40;75.90
21662;DHT22;10992;48.170;8.596;2023-06-14T10:39:55;26.10;76.50
21662;DHT22;10992;48.170;8.596;2023-06-14T10:42:33;26.90;73.80
21662;DHT22;10992;48.170;8.596;2023-06-14T10:45:00;26.50;73.60
21662;DHT22;10992;48.170;8.596;2023-06-14T10:47:29;27.10;75.20
21662;DHT22;10992;48.170;8.596;2023-06-14T10:50:08;27.40;73.40
21662;DHT22;10992;48.170;8.596;2023-06-14T10:52:39;27.70;73.30
21662;DHT22;10992;48.170;8.596;2023-06-14T10:55:19;27.90;72.30
21662;DHT22;10992;48.170;8.596;2023-06-14T10:57:50;28.50;73.40
21662;DHT22;10992;48.170;8.596;2023-06-14T11:00:20;28.80;72.30
21662;DHT22;10992;48.170;8.596;2023-06-14T11:05:27;27.80;71.80
21662;DHT22;10992;48.170;8.596;2023-06-14T11:10:39;28.10;70.80
21662;DHT22;10992;48.170;8.596;2023-06-14T11:13:07;27.20;71.80
21662;DHT22;10992;48.170;8.596;2023-06-14T11:15:38;27.30;72.00
21662;DHT22;10992;48.170;8.596;2023-06-14T11:18:10;27.00;73.00
21662;DHT22;10992;48.170;8.596;2023-06-14T11:20:37;27.70;71.40
21662;DHT22;10992;48.170;8.596;2023-06-14T11:23:04;26.70;75.00
21662;DHT22;10992;48.170;8.596;2023-06-14T11:25:32;27.00;74.70
21662;DHT22;10992;48.170;8.596;2023-06-14T11:27:58;27.20;72.90
21662;DHT22;10992;48.170;8.596;2023-06-14T11:30:26;27.20;75.10
21662;DHT22;10992;48.170;8.596;2023-06-14T11:32:54;26.60;74.20
21662;DHT22;10992;48.170;8.596;2023-06-14T11:35:25;26.90;73.10
21662;DHT22;10992;48.170;8.596;2023-06-14T11:37:53;26.40;72.90
21662;DHT22;10992;48.170;8.596;2023-06-14T11:40:25;26.90;74.00
21662;DHT22;10992;48.170;8.596;2023-06-14T11:43:00;27.40;71.30
21662;DHT22;10992;48.170;8.596;2023-06-14T11:45:29;26.80;72.70
21662;DHT22;10992;48.170;8.596;2023-06-14T11:47:58;27.00;73.30
21662;DHT22;10992;48.170;8.596;2023-06-14T11:50:26;27.20;74.40
21662;DHT22;10992;48.170;8.596;2023-06-14T11:52:59;27.60;71.20
21662;DHT22;10992;48.170;8.596;2023-06-14T11:55:39;27.30;72.80
21662;DHT22;10992;48.170;8.596;2023-06-14T11:58:08;27.40;71.80
21662;DHT22;10992;48.170;8.596;2023-06-14T12:00:35;27.40;74.20
21662;DHT22;10992;48.170;8.596;2023-06-14T12:03:03;27.00;73.00
21662;DHT22;10992;48.170;8.596;2023-06-14T12:05:30;27.40;75.80
21662;DHT22;10992;48.170;8.596;2023-06-14T12:08:02;27.80;70.80
21662;DHT22;10992;48.170;8.596;2023-06-14T12:10:29;27.70;69.80
21662;DHT22;10992;48.170;8.596;2023-06-14T12:12:57;26.70;73.10
21662;DHT22;10992;48.170;8.596;2023-06-14T12:15:28;26.70;74.90
21662;DHT22;10992;48.170;8.596;2023-06-14T12:17:58;26.40;74.00
21662;DHT22;10992;48.170;8.596;2023-06-14T12:20:29;27.40;70.60
21662;DHT22;10992;48.170;8.596;2023-06-14T12:23:03;27.10;70.50
21662;DHT22;10992;48.170;8.596;2023-06-14T12:25:34;27.40;72.10
21662;DHT22;10992;48.170;8.596;2023-06-14T12:28:05;27.60;70.60
21662;DHT22;10992;48.170;8.596;2023-06-14T12:30:36;27.50;73.10
21662;DHT22;10992;48.170;8.596;2023-06-14T12:33:04;27.10;73.00
21662;DHT22;10992;48.170;8.596;2023-06-14T12:35:32;27.40;72.80
21662;DHT22;10992;48.170;8.596;2023-06-14T12:37:59;27.70;71.70
21662;DHT22;10992;48.170;8.596;2023-06-14T12:40:26;27.50;71.80
21662;DHT22;10992;48.170;8.596;2023-06-14T12:42:53;27.60;72.60
21662;DHT22;10992;48.170;8.596;2023-06-14T12:45:20;27.30;71.50
21662;DHT22;10992;48.170;8.596;2023-06-14T12:47:47;27.40;71.00
21662;DHT22;10992;48.170;8.596;2023-06-14T12:50:14;27.10;74.00
21662;DHT22;10992;48.170;8.596;2023-06-14T12:52:42;26.90;72.60
21662;DHT22;10992;48.170;8.596;2023-06-14T12:55:09;27.00;74.30
21662;DHT22;10992;48.170;8.596;2023-06-14T12:57:36;26.90;73.40
21662;DHT22;10992;48.170;8.596;2023-06-14T13:00:05;26.70;73.50
21662;DHT22;10992;48.170;8.596;2023-06-14T13:02:34;26.80;72.50
21662;DHT22;10992;48.170;8.596;2023-06-14T13:05:01;26.60;72.40
21662;DHT22;10992;48.170;8.596;2023-06-14T13:07:30;26.50;73.50
21662;DHT22;10992;48.170;8.596;2023-06-14T13:09:57;26.70;74.20
21662;DHT22;10992;48.170;8.596;2023-06-14T13:12:24;26.20;74.20
21662;DHT22;10992;48.170;8.596;2023-06-14T13:14:51;26.10;75.70
21662;DHT22;10992;48.170;8.596;2023-06-14T13:17:18;26.10;75.40
21662;DHT22;10992;48.170;8.596;2023-06-14T13:19:45;26.70;78.00
21662;DHT22;10992;48.170;8.596;2023-06-14T13:22:12;26.50;74.90
21662;DHT22;10992;48.170;8.596;2023-06-14T13:24:39;26.60;76.40
21662;DHT22;10992;48.170;8.596;2023-06-14T13:27:06;26.40;75.90
21662;DHT22;10992;48.170;8.596;2023-06-14T13:29:33;26.60;74.50
21662;DHT22;10992;48.170;8.596;2023-06-14T13:32:03;26.40;76.40
21662;DHT22;10992;48.170;8.596;2023-06-14T13:34:30;26.20;75.90
21662;DHT22;10992;48.170;8.596;2023-06-14T13:36:57;25.90;75.50
21662;DHT22;10992;48.170;8.596;2023-06-14T13:39:26;25.80;77.10
21662;DHT22;10992;48.170;8.596;2023-06-14T13:41:53;26.00;77.40
21662;DHT22;10992;48.170;8.596;2023-06-14T13:44:20;26.00;77.80
21662;DHT22;10992;48.170;8.596;2023-06-14T13:46:48;26.10;78.60
21662;DHT22;10992;48.170;8.596;2023-06-14T13:49:15;26.30;79.40
21662;DHT22;10992;48.170;8.596;2023-06-14T13:51:41;26.50;78.90
21662;DHT22;10992;48.170;8.596;2023-06-14T13:54:09;26.90;76.40
21662;DHT22;10992;48.170;8.596;2023-06-14T13:56:39;26.40;73.60
21662;DHT22;10992;48.170;8.596;2023-06-14T13:59:05;26.20;75.50
21662;DHT22;10992;48.170;8.596;2023-06-14T14:01:33;25.80;75.70
21662;DHT22;10992;48.170;8.596;2023-06-14T14:04:00;25.90;76.00
21662;DHT22;10992;48.170;8.596;2023-06-14T14:06:27;26.30;75.50
21662;DHT22;10992;48.170;8.596;2023-06-14T14:08:54;26.30;76.10
21662;DHT22;10992;48.170;8.596;2023-06-14T14:11:21;26.60;75.10
21662;DHT22;10992;48.170;8.596;2023-06-14T14:13:48;26.40;73.00
21662;DHT22;10992;48.170;8.596;2023-06-14T14:16:15;26.10;74.20
21662;DHT22;10992;48.170;8.596;2023-06-14T14:18:42;25.80;76.30
21662;DHT22;10992;48.170;8.596;2023-06-14T14:21:09;26.00;76.10
21662;DHT22;10992;48.170;8.596;2023-06-14T14:23:36;25.70;75.70
21662;DHT22;10992;48.170;8.596;2023-06-14T14:26:07;25.80;77.40
21662;DHT22;10992;48.170;8.596;2023-06-14T14:28:34;25.80;76.30
21662;DHT22;10992;48.170;8.596;2023-06-14T14:31:01;25.70;77.20
21662;DHT22;10992;48.170;8.596;2023-06-14T14:33:28;25.70;76.90
21662;DHT22;10992;48.170;8.596;2023-06-14T14:35:55;25.70;76.70
21662;DHT22;10992;48.170;8.596;2023-06-14T14:38:22;25.80;76.70
21662;DHT22;10992;48.170;8.596;2023-06-14T14:40:49;25.80;75.90
21662;DHT22;10992;48.170;8.596;2023-06-14T14:43:16;25.50;75.00
21662;DHT22;10992;48.170;8.596;2023-06-14T14:45:43;25.40;74.20
21662;DHT22;10992;48.170;8.596;2023-06-14T14:48:09;25.30;77.30
21662;DHT22;10992;48.170;8.596;2023-06-14T14:50:37;25.10;75.80
21662;DHT22;10992;48.170;8.596;2023-06-14T14:53:05;25.30;76.00
21662;DHT22;10992;48.170;8.596;2023-06-14T14:55:33;25.20;75.80
21662;DHT22;10992;48.170;8.596;2023-06-14T14:58:02;25.20;75.90
21662;DHT22;10992;48.170;8.596;2023-06-14T15:00:29;25.20;75.10
21662;DHT22;10992;48.170;8.596;2023-06-14T15:02:56;24.80;76.30
21662;DHT22;10992;48.170;8.596;2023-06-14T15:05:23;25.20;77.70
21662;DHT22;10992;48.170;8.596;2023-06-14T15:07:50;25.30;76.90
21662;DHT22;10992;48.170;8.596;2023-06-14T15:10:17;25.40;75.00
21662;DHT22;10992;48.170;8.596;2023-06-14T15:12:44;25.30;75.80
21662;DHT22;10992;48.170;8.596;2023-06-14T15:15:11;25.30;75.10
21662;DHT22;10992;48.170;8.596;2023-06-14T15:17:38;25.20;75.00
21662;DHT22;10992;48.170;8.596;2023-06-14T15:20:05;25.20;74.40
21662;DHT22;10992;48.170;8.596;2023-06-14T15:22:33;25.00;73.00
21662;DHT22;10992;48.170;8.596;2023-06-14T15:25:00;24.70;72.90
21662;DHT22;10992;48.170;8.596;2023-06-14T15:27:27;24.70;73.00
21662;DHT22;10992;48.170;8.596;2023-06-14T15:29:54;24.70;74.10
21662;DHT22;10992;48.170;8.596;2023-06-14T15:32:21;24.60;76.90
21662;DHT22;10992;48.170;8.596;2023-06-14T15:34:48;24.40;77.30
21662;DHT22;10992;48.170;8.596;2023-06-14T15:37:15;24.10;79.00
21662;DHT22;10992;48.170;8.596;2023-06-14T15:39:42;24.20;79.20
21662;DHT22;10992;48.170;8.596;2023-06-14T15:42:09;24.20;79.20
21662;DHT22;10992;48.170;8.596;2023-06-14T15:44:36;23.90;79.90
21662;DHT22;10992;48.170;8.596;2023-06-14T15:47:03;23.80;79.90
21662;DHT22;10992;48.170;8.596;2023-06-14T15:49:30;23.60;79.40
21662;DHT22;10992;48.170;8.596;2023-06-14T15:51:57;23.50;79.90